sensor_id;sensor_type;location;lat;lon;timestamp;temperature;humidity
7970;DHT22;4030;52.362;9.206;2023-04-03T00:04:07;8.20;56.90
7970;DHT22;4030;52.362;9.206;2023-04-03T00:06:32;8.40;57.10
7970;DHT22;4030;52.362;9.206;2023-04-03T00:13:51;8.10;57.00
7970;DHT22;4030;52.362;9.206;2023-04-03T00:16:17;8.20;57.00
7970;DHT22;4030;52.362;9.206;2023-04-03T00:18:43;8.20;57.10
7970;DHT22;4030;52.362;9.206;2023-04-03T00:21:12;8.10;57.10
7970;DHT22;4030;52.362;9.206;2023-04-03T00:23:38;8.10;57.30
7970;DHT22;4030;52.362;9.206;2023-04-03T00:26:04;8.20;57.40
7970;DHT22;4030;52.362;9.206;2023-04-03T00:28:30;8.10;57.30
7970;DHT22;4030;52.362;9.206;2023-04-03T00:30:56;8.10;57.40
7970;DHT22;4030;52.362;9.206;2023-04-03T00:35:48;8.00;57.30
7970;DHT22;4030;52.362;9.206;2023-04-03T00:38:14;7.90;57.40
7970;DHT22;4030;52.362;9.206;2023-04-03T00:40:43;8.00;57.60
7970;DHT22;4030;52.362;9.206;2023-04-03T00:43:16;7.90;57.40
7970;DHT22;4030;52.362;9.206;2023-04-03T00:45:49;7.80;57.50
7970;DHT22;4030;52.362;9.206;2023-04-03T00:48:31;7.80;57.50
7970;DHT22;4030;52.362;9.206;2023-04-03T00:50:59;7.80;57.70
7970;DHT22;4030;52.362;9.206;2023-04-03T00:53:33;7.80;57.70
7970;DHT22;4030;52.362;9.206;2023-04-03T00:56:06;7.70;57.60
7970;DHT22;4030;52.362;9.206;2023-04-03T00:58:43;7.70;57.60
7970;DHT22;4030;52.362;9.206;2023-04-03T01:01:16;7.80;57.70
7970;DHT22;4030;52.362;9.206;2023-04-03T01:06:13;7.90;57.90
7970;DHT22;4030;52.362;9.206;2023-04-03T01:08:39;7.70;57.80
7970;DHT22;4030;52.362;9.206;2023-04-03T01:11:05;7.60;57.90
7970;DHT22;4030;52.362;9.206;2023-04-03T01:13:32;7.50;57.70
7970;DHT22;4030;52.362;9.206;2023-04-03T01:16:01;7.50;57.80
7970;DHT22;4030;52.362;9.206;2023-04-03T01:18:28;7.50;57.90
7970;DHT22;4030;52.362;9.206;2023-04-03T01:26:10;7.40;57.90
7970;DHT22;4030;52.362;9.206;2023-04-03T01:31:19;7.40;57.90
7970;DHT22;4030;52.362;9.206;2023-04-03T01:33:48;7.70;58.40
7970;DHT22;4030;52.362;9.206;2023-04-03T01:36:21;7.60;58.40
7970;DHT22;4030;52.362;9.206;2023-04-03T01:38:52;7.40;58.10
7970;DHT22;4030;52.362;9.206;2023-04-03T01:41:19;7.50;58.40
7970;DHT22;4030;52.362;9.206;2023-04-03T01:43:47;7.30;58.30
7970;DHT22;4030;52.362;9.206;2023-04-03T01:46:13;7.50;58.40
7970;DHT22;4030;52.362;9.206;2023-04-03T01:48:39;7.40;58.30
7970;DHT22;4030;52.362;9.206;2023-04-03T02:00:51;7.00;58.20
7970;DHT22;4030;52.362;9.206;2023-04-03T02:03:17;7.20;58.50
7970;DHT22;4030;52.362;9.206;2023-04-03T02:05:43;7.30;58.60
7970;DHT22;4030;52.362;9.206;2023-04-03T02:08:08;7.00;58.50
7970;DHT22;4030;52.362;9.206;2023-04-03T02:17:52;7.10;58.60
7970;DHT22;4030;52.362;9.206;2023-04-03T02:27:38;7.10;58.90
7970;DHT22;4030;52.362;9.206;2023-04-03T02:30:04;7.30;59.10
7970;DHT22;4030;52.362;9.206;2023-04-03T02:47:07;7.20;59.30
7970;DHT22;4030;52.362;9.206;2023-04-03T02:49:33;7.00;59.20
7970;DHT22;4030;52.362;9.206;2023-04-03T02:56:53;7.00;59.30
7970;DHT22;4030;52.362;9.206;2023-04-03T02:59:20;6.80;59.10
7970;DHT22;4030;52.362;9.206;2023-04-03T03:01:46;6.80;59.20
7970;DHT22;4030;52.362;9.206;2023-04-03T03:11:31;6.60;59.20
7970;DHT22;4030;52.362;9.206;2023-04-03T03:13:57;6.50;59.20
7970;DHT22;4030;52.362;9.206;2023-04-03T03:16:23;6.80;59.40
7970;DHT22;4030;52.362;9.206;2023-04-03T03:18:49;6.40;59.20
7970;DHT22;4030;52.362;9.206;2023-04-03T03:21:14;6.50;59.20
7970;DHT22;4030;52.362;9.206;2023-04-03T03:26:08;6.50;59.30
7970;DHT22;4030;52.362;9.206;2023-04-03T03:28:36;6.50;59.40
7970;DHT22;4030;52.362;9.206;2023-04-03T03:31:03;6.50;59.20
7970;DHT22;4030;52.362;9.206;2023-04-03T03:33:29;6.40;59.40
7970;DHT22;4030;52.362;9.206;2023-04-03T03:35:55;6.50;59.50
7970;DHT22;4030;52.362;9.206;2023-04-03T03:38:21;6.60;59.60
7970;DHT22;4030;52.362;9.206;2023-04-03T03:40:48;6.40;59.40
7970;DHT22;4030;52.362;9.206;2023-04-03T03:48:07;6.60;59.70
7970;DHT22;4030;52.362;9.206;2023-04-03T03:55:25;6.30;59.60
7970;DHT22;4030;52.362;9.206;2023-04-03T03:57:51;6.40;59.60
7970;DHT22;4030;52.362;9.206;2023-04-03T04:02:43;6.10;59.40
7970;DHT22;4030;52.362;9.206;2023-04-03T04:19:46;6.20;59.80
7970;DHT22;4030;52.362;9.206;2023-04-03T04:32:01;6.10;60.00
7970;DHT22;4030;52.362;9.206;2023-04-03T04:49:04;5.80;59.90
7970;DHT22;4030;52.362;9.206;2023-04-03T04:51:30;6.10;60.30
7970;DHT22;4030;52.362;9.206;2023-04-03T05:03:41;5.80;60.30
7970;DHT22;4030;52.362;9.206;2023-04-03T05:23:10;5.90;60.40
7970;DHT22;4030;52.362;9.206;2023-04-03T05:25:38;5.90;60.60
7970;DHT22;4030;52.362;9.206;2023-04-03T05:28:04;5.80;60.60
7970;DHT22;4030;52.362;9.206;2023-04-03T05:32:55;5.90;60.60
7970;DHT22;4030;52.362;9.206;2023-04-03T05:45:06;5.80;60.60
7970;DHT22;4030;52.362;9.206;2023-04-03T05:52:38;5.90;60.70
7970;DHT22;4030;52.362;9.206;2023-04-03T05:57:32;5.90;60.80
7970;DHT22;4030;52.362;9.206;2023-04-03T06:02:24;6.10;60.90
7970;DHT22;4030;52.362;9.206;2023-04-03T06:04:51;6.20;61.20
7970;DHT22;4030;52.362;9.206;2023-04-03T06:07:19;6.00;61.00
7970;DHT22;4030;52.362;9.206;2023-04-03T06:09:48;6.20;61.30
7970;DHT22;4030;52.362;9.206;2023-04-03T06:12:17;6.20;61.30
7970;DHT22;4030;52.362;9.206;2023-04-03T06:14:44;6.10;61.20
7970;DHT22;4030;52.362;9.206;2023-04-03T06:17:10;6.10;61.20
7970;DHT22;4030;52.362;9.206;2023-04-03T06:19:37;6.10;61.30
7970;DHT22;4030;52.362;9.206;2023-04-03T06:22:03;6.10;61.20
7970;DHT22;4030;52.362;9.206;2023-04-03T06:26:55;6.30;61.60
7970;DHT22;4030;52.362;9.206;2023-04-03T06:29:22;6.20;61.50
7970;DHT22;4030;52.362;9.206;2023-04-03T06:31:48;6.40;61.80
7970;DHT22;4030;52.362;9.206;2023-04-03T06:36:42;6.50;62.00
7970;DHT22;4030;52.362;9.206;2023-04-03T06:39:12;6.40;62.00
7970;DHT22;4030;52.362;9.206;2023-04-03T06:51:28;6.50;62.20
7970;DHT22;4030;52.362;9.206;2023-04-03T06:53:56;6.80;62.70
7970;DHT22;4030;52.362;9.206;2023-04-03T06:56:23;6.60;62.60
7970;DHT22;4030;52.362;9.206;2023-04-03T06:58:49;6.50;62.50
7970;DHT22;4030;52.362;9.206;2023-04-03T07:01:16;6.80;62.80
7970;DHT22;4030;52.362;9.206;2023-04-03T07:06:12;6.90;62.70
7970;DHT22;4030;52.362;9.206;2023-04-03T07:11:05;7.10;63.20
7970;DHT22;4030;52.362;9.206;2023-04-03T07:13:31;7.00;63.10
7970;DHT22;4030;52.362;9.206;2023-04-03T07:18:23;7.00;63.20
7970;DHT22;4030;52.362;9.206;2023-04-03T07:20:48;7.40;63.60
7970;DHT22;4030;52.362;9.206;2023-04-03T07:23:14;7.30;63.40
7970;DHT22;4030;52.362;9.206;2023-04-03T07:25:44;7.20;63.40
7970;DHT22;4030;52.362;9.206;2023-04-03T07:30:45;7.30;63.70
7970;DHT22;4030;52.362;9.206;2023-04-03T07:33:13;7.40;64.20
7970;DHT22;4030;52.362;9.206;2023-04-03T07:35:40;7.20;64.50
7970;DHT22;4030;52.362;9.206;2023-04-03T07:38:06;7.70;66.60
7970;DHT22;4030;52.362;9.206;2023-04-03T07:40:32;7.80;67.20
7970;DHT22;4030;52.362;9.206;2023-04-03T07:45:25;7.70;66.80
7970;DHT22;4030;52.362;9.206;2023-04-03T07:47:51;7.60;66.50
7970;DHT22;4030;52.362;9.206;2023-04-03T07:50:17;7.80;66.70
7970;DHT22;4030;52.362;9.206;2023-04-03T07:52:43;7.70;66.60
7970;DHT22;4030;52.362;9.206;2023-04-03T07:55:09;8.00;67.10
7970;DHT22;4030;52.362;9.206;2023-04-03T08:00:02;7.90;66.90
7970;DHT22;4030;52.362;9.206;2023-04-03T08:02:30;8.10;67.10
7970;DHT22;4030;52.362;9.206;2023-04-03T08:09:50;8.00;66.90
7970;DHT22;4030;52.362;9.206;2023-04-03T08:14:42;8.30;67.20
7970;DHT22;4030;52.362;9.206;2023-04-03T08:17:08;8.50;67.30
7970;DHT22;4030;52.362;9.206;2023-04-03T08:19:37;8.50;67.40
7970;DHT22;4030;52.362;9.206;2023-04-03T08:24:31;8.70;67.50
7970;DHT22;4030;52.362;9.206;2023-04-03T08:26:57;8.70;67.50
7970;DHT22;4030;52.362;9.206;2023-04-03T08:31:50;8.80;67.40
7970;DHT22;4030;52.362;9.206;2023-04-03T08:39:09;9.40;67.80
7970;DHT22;4030;52.362;9.206;2023-04-03T08:41:38;9.50;67.80
7970;DHT22;4030;52.362;9.206;2023-04-03T08:44:25;9.20;67.40
7970;DHT22;4030;52.362;9.206;2023-04-03T08:47:24;9.50;67.40
7970;DHT22;4030;52.362;9.206;2023-04-03T08:50:06;9.60;67.20
7970;DHT22;4030;52.362;9.206;2023-04-03T08:52:38;9.70;67.10
7970;DHT22;4030;52.362;9.206;2023-04-03T08:57:46;9.90;66.70
7970;DHT22;4030;52.362;9.206;2023-04-03T09:03:01;10.20;65.40
7970;DHT22;4030;52.362;9.206;2023-04-03T09:08:22;10.60;65.40
7970;DHT22;4030;52.362;9.206;2023-04-03T09:22:17;11.50;64.50
7970;DHT22;4030;52.362;9.206;2023-04-03T09:25:17;11.50;64.20
7970;DHT22;4030;52.362;9.206;2023-04-03T09:27:45;11.80;63.80
7970;DHT22;4030;52.362;9.206;2023-04-03T09:30:31;11.80;63.30
7970;DHT22;4030;52.362;9.206;2023-04-03T09:32:58;11.80;63.10
7970;DHT22;4030;52.362;9.206;2023-04-03T09:35:32;11.80;62.70
7970;DHT22;4030;52.362;9.206;2023-04-03T09:40:50;12.10;62.00
7970;DHT22;4030;52.362;9.206;2023-04-03T09:43:34;12.10;61.60
7970;DHT22;4030;52.362;9.206;2023-04-03T09:46:34;12.10;61.30
7970;DHT22;4030;52.362;9.206;2023-04-03T09:49:04;12.00;60.80
7970;DHT22;4030;52.362;9.206;2023-04-03T09:51:31;12.00;60.60
7970;DHT22;4030;52.362;9.206;2023-04-03T09:53:57;12.20;60.50
7970;DHT22;4030;52.362;9.206;2023-04-03T09:56:30;12.20;60.00
7970;DHT22;4030;52.362;9.206;2023-04-03T10:01:37;12.60;59.70
7970;DHT22;4030;52.362;9.206;2023-04-03T10:06:32;12.80;59.30
7970;DHT22;4030;52.362;9.206;2023-04-03T10:09:27;12.90;59.00
7970;DHT22;4030;52.362;9.206;2023-04-03T10:12:09;12.80;58.80
7970;DHT22;4030;52.362;9.206;2023-04-03T10:14:54;12.90;58.50
7970;DHT22;4030;52.362;9.206;2023-04-03T10:20:40;13.00;58.10
7970;DHT22;4030;52.362;9.206;2023-04-03T10:31:16;13.30;57.20
7970;DHT22;4030;52.362;9.206;2023-04-03T10:37:08;13.60;56.70
7970;DHT22;4030;52.362;9.206;2023-04-03T10:42:48;13.90;56.00
7970;DHT22;4030;52.362;9.206;2023-04-03T10:45:25;14.10;55.80
7970;DHT22;4030;52.362;9.206;2023-04-03T10:48:16;14.20;55.50
7970;DHT22;4030;52.362;9.206;2023-04-03T10:51:00;14.40;55.40
7970;DHT22;4030;52.362;9.206;2023-04-03T10:56:23;14.30;54.30
7970;DHT22;4030;52.362;9.206;2023-04-03T11:01:32;14.00;53.30
7970;DHT22;4030;52.362;9.206;2023-04-03T11:04:00;13.90;53.30
7970;DHT22;4030;52.362;9.206;2023-04-03T11:06:43;13.80;53.20
7970;DHT22;4030;52.362;9.206;2023-04-03T11:09:26;13.70;53.00
7970;DHT22;4030;52.362;9.206;2023-04-03T11:12:00;13.60;53.00
7970;DHT22;4030;52.362;9.206;2023-04-03T11:14:35;13.50;53.00
7970;DHT22;4030;52.362;9.206;2023-04-03T11:20:02;13.50;53.00
7970;DHT22;4030;52.362;9.206;2023-04-03T11:22:32;13.90;53.20
7970;DHT22;4030;52.362;9.206;2023-04-03T11:27:43;14.10;53.80
7970;DHT22;4030;52.362;9.206;2023-04-03T11:30:21;14.20;53.90
7970;DHT22;4030;52.362;9.206;2023-04-03T11:35:47;14.10;53.50
7970;DHT22;4030;52.362;9.206;2023-04-03T11:38:27;14.10;53.30
7970;DHT22;4030;52.362;9.206;2023-04-03T11:40:57;14.10;53.20
7970;DHT22;4030;52.362;9.206;2023-04-03T11:43:29;14.20;53.20
7970;DHT22;4030;52.362;9.206;2023-04-03T11:46:03;14.50;53.40
7970;DHT22;4030;52.362;9.206;2023-04-03T11:50:58;14.70;53.90
7970;DHT22;4030;52.362;9.206;2023-04-03T11:53:31;14.70;53.90
7970;DHT22;4030;52.362;9.206;2023-04-03T11:55:59;14.80;53.90
7970;DHT22;4030;52.362;9.206;2023-04-03T12:01:56;14.80;53.90
7970;DHT22;4030;52.362;9.206;2023-04-03T12:04:25;14.70;53.70
7970;DHT22;4030;52.362;9.206;2023-04-03T12:06:59;14.60;53.60
7970;DHT22;4030;52.362;9.206;2023-04-03T12:09:33;14.60;53.60
7970;DHT22;4030;52.362;9.206;2023-04-03T12:12:39;14.50;53.40
7970;DHT22;4030;52.362;9.206;2023-04-03T12:23:36;14.90;53.20
7970;DHT22;4030;52.362;9.206;2023-04-03T12:28:43;15.30;53.30
7970;DHT22;4030;52.362;9.206;2023-04-03T12:31:10;15.50;53.50
7970;DHT22;4030;52.362;9.206;2023-04-03T12:34:02;15.70;53.60
7970;DHT22;4030;52.362;9.206;2023-04-03T12:36:49;15.80;53.70
7970;DHT22;4030;52.362;9.206;2023-04-03T12:42:42;15.60;52.60
7970;DHT22;4030;52.362;9.206;2023-04-03T12:45:22;15.50;51.80
7970;DHT22;4030;52.362;9.206;2023-04-03T12:47:51;15.40;51.30
7970;DHT22;4030;52.362;9.206;2023-04-03T12:50:30;15.40;51.00
7970;DHT22;4030;52.362;9.206;2023-04-03T12:53:01;15.60;50.80
7970;DHT22;4030;52.362;9.206;2023-04-03T12:55:30;15.70;50.80
7970;DHT22;4030;52.362;9.206;2023-04-03T12:57:56;16.10;51.00
7970;DHT22;4030;52.362;9.206;2023-04-03T13:02:59;16.30;51.20
7970;DHT22;4030;52.362;9.206;2023-04-03T13:05:29;16.10;51.00
7970;DHT22;4030;52.362;9.206;2023-04-03T13:08:00;16.10;50.80
7970;DHT22;4030;52.362;9.206;2023-04-03T13:10:28;15.90;50.70
7970;DHT22;4030;52.362;9.206;2023-04-03T13:12:57;15.90;50.60
7970;DHT22;4030;52.362;9.206;2023-04-03T13:15:46;16.00;50.50
7970;DHT22;4030;52.362;9.206;2023-04-03T13:18:32;16.10;50.50
7970;DHT22;4030;52.362;9.206;2023-04-03T13:21:03;16.30;50.50
7970;DHT22;4030;52.362;9.206;2023-04-03T13:23:32;16.50;50.40
7970;DHT22;4030;52.362;9.206;2023-04-03T13:26:03;17.00;50.50
7970;DHT22;4030;52.362;9.206;2023-04-03T13:28:31;17.10;50.10
7970;DHT22;4030;52.362;9.206;2023-04-03T13:33:30;17.70;49.70
7970;DHT22;4030;52.362;9.206;2023-04-03T13:36:18;18.00;49.30
7970;DHT22;4030;52.362;9.206;2023-04-03T13:39:20;18.30;48.00
7970;DHT22;4030;52.362;9.206;2023-04-03T13:41:53;18.40;46.50
7970;DHT22;4030;52.362;9.206;2023-04-03T13:44:28;18.60;46.00
7970;DHT22;4030;52.362;9.206;2023-04-03T13:46:58;18.60;45.80
7970;DHT22;4030;52.362;9.206;2023-04-03T13:49:38;18.90;41.40
7970;DHT22;4030;52.362;9.206;2023-04-03T13:52:28;18.70;41.40
7970;DHT22;4030;52.362;9.206;2023-04-03T14:00:47;18.50;47.40
7970;DHT22;4030;52.362;9.206;2023-04-03T14:03:27;18.30;49.30
7970;DHT22;4030;52.362;9.206;2023-04-03T14:05:54;18.10;49.40
7970;DHT22;4030;52.362;9.206;2023-04-03T14:08:20;18.10;48.60
7970;DHT22;4030;52.362;9.206;2023-04-03T14:10:46;18.30;47.50
7970;DHT22;4030;52.362;9.206;2023-04-03T14:13:15;18.70;46.10
7970;DHT22;4030;52.362;9.206;2023-04-03T14:15:43;19.30;45.00
7970;DHT22;4030;52.362;9.206;2023-04-03T14:18:13;19.90;43.90
7970;DHT22;4030;52.362;9.206;2023-04-03T14:20:40;20.60;42.80
7970;DHT22;4030;52.362;9.206;2023-04-03T14:28:00;20.40;34.90
7970;DHT22;4030;52.362;9.206;2023-04-03T14:30:30;19.90;37.40
7970;DHT22;4030;52.362;9.206;2023-04-03T14:32:57;19.50;39.20
7970;DHT22;4030;52.362;9.206;2023-04-03T14:35:24;19.20;39.70
7970;DHT22;4030;52.362;9.206;2023-04-03T14:37:51;19.20;39.80
7970;DHT22;4030;52.362;9.206;2023-04-03T14:40:24;19.40;39.80
7970;DHT22;4030;52.362;9.206;2023-04-03T14:45:21;20.40;38.50
7970;DHT22;4030;52.362;9.206;2023-04-03T14:47:54;21.20;37.80
7970;DHT22;4030;52.362;9.206;2023-04-03T14:50:23;22.90;35.70
7970;DHT22;4030;52.362;9.206;2023-04-03T14:52:54;24.90;32.90
7970;DHT22;4030;52.362;9.206;2023-04-03T14:55:24;26.60;30.80
7970;DHT22;4030;52.362;9.206;2023-04-03T14:57:51;28.00;28.90
7970;DHT22;4030;52.362;9.206;2023-04-03T15:00:19;28.80;27.90
7970;DHT22;4030;52.362;9.206;2023-04-03T15:02:46;28.00;28.70
7970;DHT22;4030;52.362;9.206;2023-04-03T15:05:14;26.40;30.50
7970;DHT22;4030;52.362;9.206;2023-04-03T15:07:54;25.20;30.90
7970;DHT22;4030;52.362;9.206;2023-04-03T15:10:21;24.00;32.20
7970;DHT22;4030;52.362;9.206;2023-04-03T15:12:49;23.00;33.10
7970;DHT22;4030;52.362;9.206;2023-04-03T15:15:17;23.50;33.10
7970;DHT22;4030;52.362;9.206;2023-04-03T15:17:45;25.50;31.10
7970;DHT22;4030;52.362;9.206;2023-04-03T15:20:19;27.30;28.80
7970;DHT22;4030;52.362;9.206;2023-04-03T15:22:46;29.00;27.60
7970;DHT22;4030;52.362;9.206;2023-04-03T15:25:12;30.50;25.50
7970;DHT22;4030;52.362;9.206;2023-04-03T15:27:38;31.40;24.40
7970;DHT22;4030;52.362;9.206;2023-04-03T15:30:08;31.80;23.70
7970;DHT22;4030;52.362;9.206;2023-04-03T15:32:36;31.70;24.30
7970;DHT22;4030;52.362;9.206;2023-04-03T15:35:02;29.10;24.70
7970;DHT22;4030;52.362;9.206;2023-04-03T15:37:28;27.60;26.00
7970;DHT22;4030;52.362;9.206;2023-04-03T15:39:54;26.00;27.50
7970;DHT22;4030;52.362;9.206;2023-04-03T15:42:19;24.70;28.80
7970;DHT22;4030;52.362;9.206;2023-04-03T15:44:45;23.40;29.10
7970;DHT22;4030;52.362;9.206;2023-04-03T15:47:11;22.50;29.90
7970;DHT22;4030;52.362;9.206;2023-04-03T15:49:38;22.10;30.50
7970;DHT22;4030;52.362;9.206;2023-04-03T15:52:04;21.70;30.90
7970;DHT22;4030;52.362;9.206;2023-04-03T15:54:30;21.80;31.20
7970;DHT22;4030;52.362;9.206;2023-04-03T15:56:56;21.90;31.00
7970;DHT22;4030;52.362;9.206;2023-04-03T15:59:22;21.90;31.00
7970;DHT22;4030;52.362;9.206;2023-04-03T16:01:48;21.90;31.30
7970;DHT22;4030;52.362;9.206;2023-04-03T16:04:15;21.90;31.60
7970;DHT22;4030;52.362;9.206;2023-04-03T16:06:42;21.60;31.20
7970;DHT22;4030;52.362;9.206;2023-04-03T16:09:09;21.50;31.70
7970;DHT22;4030;52.362;9.206;2023-04-03T16:11:35;21.40;31.30
7970;DHT22;4030;52.362;9.206;2023-04-03T16:16:31;21.60;30.60
7970;DHT22;4030;52.362;9.206;2023-04-03T16:18:56;21.50;30.70
7970;DHT22;4030;52.362;9.206;2023-04-03T16:21:22;22.20;30.90
7970;DHT22;4030;52.362;9.206;2023-04-03T16:26:15;23.20;29.50
7970;DHT22;4030;52.362;9.206;2023-04-03T16:28:42;22.80;29.30
7970;DHT22;4030;52.362;9.206;2023-04-03T16:31:09;22.10;29.50
7970;DHT22;4030;52.362;9.206;2023-04-03T16:33:35;22.20;30.00
7970;DHT22;4030;52.362;9.206;2023-04-03T16:36:05;22.80;29.20
7970;DHT22;4030;52.362;9.206;2023-04-03T16:38:31;22.70;29.00
7970;DHT22;4030;52.362;9.206;2023-04-03T16:45:51;20.50;30.70
7970;DHT22;4030;52.362;9.206;2023-04-03T16:48:17;20.00;31.80
7970;DHT22;4030;52.362;9.206;2023-04-03T16:50:47;19.60;32.60
7970;DHT22;4030;52.362;9.206;2023-04-03T16:55:40;18.80;33.50
7970;DHT22;4030;52.362;9.206;2023-04-03T16:58:06;18.60;33.50
7970;DHT22;4030;52.362;9.206;2023-04-03T17:00:32;18.40;33.80
7970;DHT22;4030;52.362;9.206;2023-04-03T17:15:10;17.30;33.90
7970;DHT22;4030;52.362;9.206;2023-04-03T17:17:36;17.20;34.00
7970;DHT22;4030;52.362;9.206;2023-04-03T17:20:02;17.00;34.20
7970;DHT22;4030;52.362;9.206;2023-04-03T17:22:29;16.90;34.40
7970;DHT22;4030;52.362;9.206;2023-04-03T17:24:55;16.80;34.90
7970;DHT22;4030;52.362;9.206;2023-04-03T17:37:07;15.90;36.40
7970;DHT22;4030;52.362;9.206;2023-04-03T17:39:33;15.80;36.60
7970;DHT22;4030;52.362;9.206;2023-04-03T17:41:58;15.60;36.70
7970;DHT22;4030;52.362;9.206;2023-04-03T17:44:25;15.50;36.90
7970;DHT22;4030;52.362;9.206;2023-04-03T17:49:17;15.30;37.40
7970;DHT22;4030;52.362;9.206;2023-04-03T17:51:44;15.20;37.40
7970;DHT22;4030;52.362;9.206;2023-04-03T18:01:30;14.70;37.50
7970;DHT22;4030;52.362;9.206;2023-04-03T18:03:59;14.60;37.60
7970;DHT22;4030;52.362;9.206;2023-04-03T18:06:30;14.60;37.90
7970;DHT22;4030;52.362;9.206;2023-04-03T18:09:03;14.40;38.00
7970;DHT22;4030;52.362;9.206;2023-04-03T18:11:32;14.40;38.20
7970;DHT22;4030;52.362;9.206;2023-04-03T18:13:59;14.30;38.30
7970;DHT22;4030;52.362;9.206;2023-04-03T18:16:26;14.20;38.30
7970;DHT22;4030;52.362;9.206;2023-04-03T18:18:52;14.10;38.40
7970;DHT22;4030;52.362;9.206;2023-04-03T18:21:17;14.00;38.50
7970;DHT22;4030;52.362;9.206;2023-04-03T18:23:46;13.90;38.40
7970;DHT22;4030;52.362;9.206;2023-04-03T18:26:14;13.90;38.50
7970;DHT22;4030;52.362;9.206;2023-04-03T18:28:41;13.80;38.70
7970;DHT22;4030;52.362;9.206;2023-04-03T18:31:13;13.70;38.70
7970;DHT22;4030;52.362;9.206;2023-04-03T18:33:41;13.60;38.70
7970;DHT22;4030;52.362;9.206;2023-04-03T18:41:02;13.40;39.00
7970;DHT22;4030;52.362;9.206;2023-04-03T18:50:48;13.20;39.20
7970;DHT22;4030;52.362;9.206;2023-04-03T18:53:14;13.10;39.30
7970;DHT22;4030;52.362;9.206;2023-04-03T19:00:33;13.00;39.60
7970;DHT22;4030;52.362;9.206;2023-04-03T19:02:59;12.90;39.60
7970;DHT22;4030;52.362;9.206;2023-04-03T19:05:25;12.90;39.70
7970;DHT22;4030;52.362;9.206;2023-04-03T19:07:53;12.60;39.70
7970;DHT22;4030;52.362;9.206;2023-04-03T19:10:19;12.70;39.80
7970;DHT22;4030;52.362;9.206;2023-04-03T19:12:47;12.70;39.90
7970;DHT22;4030;52.362;9.206;2023-04-03T19:15:14;12.60;39.90
7970;DHT22;4030;52.362;9.206;2023-04-03T19:17:41;12.60;40.00
7970;DHT22;4030;52.362;9.206;2023-04-03T19:20:08;12.50;40.00
7970;DHT22;4030;52.362;9.206;2023-04-03T19:27:28;12.40;40.30
7970;DHT22;4030;52.362;9.206;2023-04-03T19:29:53;12.40;40.40
7970;DHT22;4030;52.362;9.206;2023-04-03T19:32:19;12.30;40.50
7970;DHT22;4030;52.362;9.206;2023-04-03T19:39:39;12.20;40.70
7970;DHT22;4030;52.362;9.206;2023-04-03T19:42:05;12.10;40.80
7970;DHT22;4030;52.362;9.206;2023-04-03T19:44:32;12.20;40.80
7970;DHT22;4030;52.362;9.206;2023-04-03T19:47:00;12.00;40.80
7970;DHT22;4030;52.362;9.206;2023-04-03T19:49:27;11.90;40.90
7970;DHT22;4030;52.362;9.206;2023-04-03T19:56:46;11.80;41.00
7970;DHT22;4030;52.362;9.206;2023-04-03T19:59:12;11.70;41.00
7970;DHT22;4030;52.362;9.206;2023-04-03T20:04:04;11.70;41.20
7970;DHT22;4030;52.362;9.206;2023-04-03T20:08:56;11.60;41.20
7970;DHT22;4030;52.362;9.206;2023-04-03T20:11:23;11.50;41.20
7970;DHT22;4030;52.362;9.206;2023-04-03T20:13:50;11.50;41.40
7970;DHT22;4030;52.362;9.206;2023-04-03T20:16:17;11.50;41.50
7970;DHT22;4030;52.362;9.206;2023-04-03T20:21:10;11.40;41.50
7970;DHT22;4030;52.362;9.206;2023-04-03T20:26:04;11.40;41.70
7970;DHT22;4030;52.362;9.206;2023-04-03T20:28:31;11.20;41.60
7970;DHT22;4030;52.362;9.206;2023-04-03T20:30:57;11.20;41.60
7970;DHT22;4030;52.362;9.206;2023-04-03T20:33:24;11.30;41.90
7970;DHT22;4030;52.362;9.206;2023-04-03T20:35:55;11.20;41.80
7970;DHT22;4030;52.362;9.206;2023-04-03T20:38:22;11.00;41.80
7970;DHT22;4030;52.362;9.206;2023-04-03T20:40:48;11.00;41.80
7970;DHT22;4030;52.362;9.206;2023-04-03T20:43:14;11.00;41.90
7970;DHT22;4030;52.362;9.206;2023-04-03T20:45:40;10.90;41.90
7970;DHT22;4030;52.362;9.206;2023-04-03T20:48:06;10.90;41.90
7970;DHT22;4030;52.362;9.206;2023-04-03T20:50:32;10.90;42.00
7970;DHT22;4030;52.362;9.206;2023-04-03T20:52:59;10.80;41.90
7970;DHT22;4030;52.362;9.206;2023-04-03T21:00:22;10.70;42.10
7970;DHT22;4030;52.362;9.206;2023-04-03T21:02:48;10.60;42.10
7970;DHT22;4030;52.362;9.206;2023-04-03T21:05:15;10.80;42.30
7970;DHT22;4030;52.362;9.206;2023-04-03T21:20:32;10.40;42.20
7970;DHT22;4030;52.362;9.206;2023-04-03T21:22:58;10.40;42.20
7970;DHT22;4030;52.362;9.206;2023-04-03T21:25:23;10.20;42.10
7970;DHT22;4030;52.362;9.206;2023-04-03T21:27:49;10.40;42.40
7970;DHT22;4030;52.362;9.206;2023-04-03T21:30:16;10.30;42.30
7970;DHT22;4030;52.362;9.206;2023-04-03T21:32:42;10.20;42.30
7970;DHT22;4030;52.362;9.206;2023-04-03T21:35:07;10.10;42.20
7970;DHT22;4030;52.362;9.206;2023-04-03T21:39:59;10.10;42.30
7970;DHT22;4030;52.362;9.206;2023-04-03T21:42:25;10.00;42.30
7970;DHT22;4030;52.362;9.206;2023-04-03T21:44:51;9.90;43.20
7970;DHT22;4030;52.362;9.206;2023-04-03T21:49:43;10.10;42.60
7970;DHT22;4030;52.362;9.206;2023-04-03T22:06:45;9.70;43.80
7970;DHT22;4030;52.362;9.206;2023-04-03T22:11:38;9.70;43.90
7970;DHT22;4030;52.362;9.206;2023-04-03T22:14:10;9.60;43.90
7970;DHT22;4030;52.362;9.206;2023-04-03T22:16:36;9.60;43.90
7970;DHT22;4030;52.362;9.206;2023-04-03T22:19:03;9.50;43.80
7970;DHT22;4030;52.362;9.206;2023-04-03T22:28:51;9.40;44.10
7970;DHT22;4030;52.362;9.206;2023-04-03T22:33:44;9.40;44.20
7970;DHT22;4030;52.362;9.206;2023-04-03T22:36:12;9.50;44.30
7970;DHT22;4030;52.362;9.206;2023-04-03T22:41:07;9.20;44.20
7970;DHT22;4030;52.362;9.206;2023-04-03T22:43:34;9.00;44.10
7970;DHT22;4030;52.362;9.206;2023-04-03T22:46:03;9.10;44.20
7970;DHT22;4030;52.362;9.206;2023-04-03T22:48:29;9.00;44.20
7970;DHT22;4030;52.362;9.206;2023-04-03T22:50:55;9.10;44.30
7970;DHT22;4030;52.362;9.206;2023-04-03T22:53:21;9.10;44.40
7970;DHT22;4030;52.362;9.206;2023-04-03T22:55:56;8.90;44.20
7970;DHT22;4030;52.362;9.206;2023-04-03T23:01:04;9.10;44.40
7970;DHT22;4030;52.362;9.206;2023-04-03T23:03:31;8.80;44.30
7970;DHT22;4030;52.362;9.206;2023-04-03T23:05:57;8.90;44.40
7970;DHT22;4030;52.362;9.206;2023-04-03T23:08:23;8.90;44.40
7970;DHT22;4030;52.362;9.206;2023-04-03T23:13:17;8.80;44.50
7970;DHT22;4030;52.362;9.206;2023-04-03T23:15:43;8.80;44.50
7970;DHT22;4030;52.362;9.206;2023-04-03T23:25:28;8.70;44.50
7970;DHT22;4030;52.362;9.206;2023-04-03T23:27:54;8.70;44.60
7970;DHT22;4030;52.362;9.206;2023-04-03T23:30:20;8.70;44.70
7970;DHT22;4030;52.362;9.206;2023-04-03T23:32:47;8.70;44.70
7970;DHT22;4030;52.362;9.206;2023-04-03T23:35:12;8.50;44.60
7970;DHT22;4030;52.362;9.206;2023-04-03T23:37:38;8.70;44.80
7970;DHT22;4030;52.362;9.206;2023-04-03T23:40:04;8.60;44.80
7970;DHT22;4030;52.362;9.206;2023-04-03T23:42:31;8.70;45.00
7970;DHT22;4030;52.362;9.206;2023-04-03T23:44:56;8.60;45.00
7970;DHT22;4030;52.362;9.206;2023-04-03T23:47:22;8.40;44.90
7970;DHT22;4030;52.362;9.206;2023-04-03T23:49:48;8.40;44.90
